createdAt,value
2024-05-09T00:00:40.363Z,99.00
2024-05-09T00:03:09.823Z,99.00
2024-05-09T00:05:38.322Z,99.00
2024-05-09T00:08:06.584Z,99.00
2024-05-09T00:10:37.379Z,99.00
2024-05-09T00:13:10.441Z,98.80
2024-05-09T00:15:37.925Z,99.10
2024-05-09T00:18:06.806Z,99.20
2024-05-09T00:20:38.925Z,99.20
2024-05-09T00:23:12.636Z,99.10
2024-05-09T00:25:41.825Z,99.00
2024-05-09T00:28:08.787Z,99.10
2024-05-09T00:30:37.056Z,99.20
2024-05-09T00:33:06.690Z,99.10
2024-05-09T00:35:34.866Z,99.30
2024-05-09T00:38:02.196Z,99.20
2024-05-09T00:40:40.161Z,99.30
2024-05-09T00:43:10.197Z,99.30
2024-05-09T00:45:37.218Z,99.40
2024-05-09T00:48:07.123Z,99.30
2024-05-09T00:50:37.998Z,99.40
2024-05-09T00:53:11.458Z,99.30
2024-05-09T00:55:39.680Z,99.50
2024-05-09T00:58:09.128Z,99.60
2024-05-09T01:00:39.812Z,99.40
2024-05-09T01:03:10.893Z,99.50
2024-05-09T01:05:40.072Z,99.40
2024-05-09T01:08:07.886Z,99.40
2024-05-09T01:10:36.221Z,99.30
2024-05-09T01:13:04.336Z,99.20
2024-05-09T01:15:31.290Z,99.10
2024-05-09T01:18:00.652Z,99.10
2024-05-09T01:20:37.144Z,98.90
2024-05-09T01:23:09.858Z,99.40
2024-05-09T01:25:37.476Z,99.30
2024-05-09T01:28:04.573Z,99.30
2024-05-09T01:30:35.244Z,99.30
2024-05-09T01:33:06.127Z,99.50
2024-05-09T01:35:34.499Z,99.20
2024-05-09T01:38:01.422Z,99.30
2024-05-09T01:40:37.023Z,99.30
2024-05-09T01:43:07.196Z,99.10
2024-05-09T01:45:34.175Z,99.20
2024-05-09T01:48:01.653Z,99.20
2024-05-09T01:50:37.482Z,14.70
2024-05-09T01:53:12.202Z,17.80
2024-05-09T01:55:39.491Z,25.80
2024-05-09T01:58:06.382Z,26.60
2024-05-09T02:00:39.191Z,34.20
2024-05-09T02:03:11.560Z,19.50
2024-05-09T02:05:41.595Z,16.50
2024-05-09T02:08:16.130Z,17.20
2024-05-09T02:10:47.151Z,29.80
2024-05-09T02:13:15.075Z,32.00
2024-05-09T02:15:42.091Z,28.40
2024-05-09T02:18:09.897Z,29.90
2024-05-09T02:20:39.386Z,30.40
2024-05-09T02:23:07.061Z,40.70
2024-05-09T02:25:34.620Z,38.10
2024-05-09T02:28:01.632Z,30.80
2024-05-09T02:32:58.388Z,17.80
2024-05-09T02:35:26.247Z,22.50
2024-05-09T02:37:53.176Z,23.20
2024-05-09T02:40:25.692Z,25.00
2024-05-09T02:43:00.880Z,24.90
2024-05-09T02:45:27.719Z,27.80
2024-05-09T02:47:54.861Z,21.30
2024-05-09T02:50:29.852Z,24.70
2024-05-09T02:53:03.788Z,15.00
2024-05-09T02:55:30.688Z,19.20
2024-05-09T02:57:57.521Z,20.70
2024-05-09T03:00:30.115Z,17.10
2024-05-09T03:03:05.899Z,15.60
2024-05-09T03:05:33.102Z,24.30
2024-05-09T03:08:00.138Z,18.20
2024-05-09T03:10:29.120Z,22.20
2024-05-09T03:13:09.790Z,17.60
2024-05-09T03:15:36.821Z,25.60
2024-05-09T03:18:05.433Z,28.60
2024-05-09T03:20:35.153Z,20.40
2024-05-09T03:23:04.130Z,19.50
2024-05-09T03:25:31.326Z,21.10
2024-05-09T03:27:58.284Z,28.70
2024-05-09T03:30:36.664Z,29.30
2024-05-09T03:33:19.976Z,43.20
2024-05-09T03:35:48.550Z,43.00
2024-05-09T03:38:16.132Z,45.20
2024-05-09T03:40:50.604Z,49.10
2024-05-09T03:43:29.996Z,48.20
2024-05-09T03:45:56.845Z,67.40
2024-05-09T03:48:23.909Z,41.20
2024-05-09T03:50:50.963Z,33.80
2024-05-09T03:53:17.919Z,41.30
2024-05-09T03:55:47.214Z,36.80
2024-05-09T03:58:14.545Z,42.20
2024-05-09T04:00:42.436Z,42.50
2024-05-09T04:03:11.541Z,46.60
2024-05-09T04:05:41.753Z,42.80
2024-05-09T04:08:10.236Z,37.10
2024-05-09T04:10:37.483Z,50.30
2024-05-09T04:13:04.609Z,45.90
2024-05-09T04:15:31.847Z,45.00
2024-05-09T04:17:59.115Z,46.00
2024-05-09T04:20:36.822Z,46.00
2024-05-09T04:23:08.151Z,47.40
2024-05-09T04:25:36.723Z,45.90
2024-05-09T04:28:03.824Z,51.70
2024-05-09T04:30:37.320Z,50.80
2024-05-09T04:33:09.228Z,44.60
2024-05-09T04:35:38.396Z,51.80
2024-05-09T04:38:05.888Z,58.00
2024-05-09T04:40:35.949Z,72.30
2024-05-09T04:43:13.365Z,72.80
2024-05-09T04:45:40.312Z,75.80
2024-05-09T04:48:07.891Z,77.10
2024-05-09T04:50:38.252Z,79.30
2024-05-09T04:53:08.683Z,83.20
2024-05-09T04:55:40.603Z,87.50
2024-05-09T04:58:14.213Z,86.60
2024-05-09T05:00:42.830Z,90.80
2024-05-09T05:03:13.950Z,93.40
2024-05-09T05:05:44.582Z,99.80
2024-05-09T05:08:17.574Z,98.40
2024-05-09T05:10:46.048Z,99.90
2024-05-09T05:13:21.851Z,97.80
2024-05-09T05:15:52.083Z,99.90
2024-05-09T05:18:19.430Z,99.90
2024-05-09T05:20:46.632Z,99.90
2024-05-09T05:23:15.317Z,99.90
2024-05-09T05:25:42.809Z,99.90
2024-05-09T05:28:10.103Z,99.90
2024-05-09T05:30:38.175Z,99.90
2024-05-09T05:33:06.027Z,99.90
2024-05-09T05:35:33.775Z,99.90
2024-05-09T05:38:01.034Z,99.90
2024-05-09T05:40:35.431Z,99.90
2024-05-09T05:43:05.724Z,99.90
2024-05-09T05:45:33.115Z,99.90
2024-05-09T05:48:02.733Z,99.90
2024-05-09T05:50:35.693Z,99.90
2024-05-09T05:53:07.816Z,99.90
2024-05-09T05:55:36.383Z,99.90
2024-05-09T05:58:03.575Z,99.90
2024-05-09T06:00:37.866Z,1.00
2024-05-09T06:03:07.422Z,1.00
2024-05-09T06:05:35.854Z,1.00
2024-05-09T06:08:02.747Z,99.90
2024-05-09T06:10:37.680Z,99.90
2024-05-09T06:13:07.440Z,1.00
2024-05-09T06:15:34.323Z,70.00
2024-05-09T06:18:01.688Z,99.90
2024-05-09T06:20:35.598Z,99.90
2024-05-09T06:23:05.787Z,99.90
2024-05-09T06:25:32.960Z,99.90
2024-05-09T06:28:00.829Z,99.90
2024-05-09T06:30:36.870Z,99.90
2024-05-09T06:33:07.594Z,99.90
2024-05-09T06:35:34.838Z,99.90
2024-05-09T06:38:02.024Z,99.90
2024-05-09T06:40:36.894Z,99.90
2024-05-09T06:43:15.048Z,99.90
2024-05-09T06:45:43.506Z,99.90
2024-05-09T06:48:10.702Z,99.90
2024-05-09T06:50:39.497Z,99.90
2024-05-09T06:53:07.983Z,99.90
2024-05-09T06:55:35.807Z,99.90
2024-05-09T06:58:05.278Z,99.90
2024-05-09T07:00:38.591Z,99.90
2024-05-09T07:03:09.194Z,99.90
2024-05-09T07:05:36.552Z,99.90
2024-05-09T07:08:04.604Z,99.90
2024-05-09T07:10:35.150Z,99.90
2024-05-09T07:13:02.984Z,99.90
2024-05-09T07:15:29.748Z,99.90
2024-05-09T07:17:57.238Z,99.90
2024-05-09T07:20:32.371Z,99.90
2024-05-09T07:23:02.944Z,99.90
2024-05-09T07:25:30.337Z,99.90
2024-05-09T07:27:57.363Z,99.90
2024-05-09T07:30:32.517Z,99.90
2024-05-09T07:33:02.282Z,99.90
2024-05-09T07:35:30.060Z,99.90
2024-05-09T07:37:57.226Z,99.90
2024-05-09T07:40:32.717Z,99.90
2024-05-09T07:43:04.127Z,99.70
2024-05-09T07:45:47.903Z,99.70
2024-05-09T07:53:39.329Z,98.80
2024-05-09T07:56:10.254Z,99.00
2024-05-09T07:58:38.677Z,98.60
2024-05-09T08:01:05.978Z,97.50
2024-05-09T08:03:34.280Z,97.40
2024-05-09T08:06:01.305Z,96.90
2024-05-09T08:08:28.079Z,97.80
2024-05-09T08:10:54.923Z,96.90
2024-05-09T08:13:21.815Z,96.90
2024-05-09T08:15:48.895Z,97.30
2024-05-09T08:18:16.090Z,97.30
2024-05-09T08:20:43.156Z,97.80
2024-05-09T08:23:11.362Z,97.70
2024-05-09T08:26:03.553Z,97.20
2024-05-09T08:28:30.436Z,96.90
2024-05-09T08:30:57.451Z,97.40
2024-05-09T08:33:24.437Z,98.60
2024-05-09T08:35:53.774Z,99.20
2024-05-09T08:38:20.573Z,97.50
2024-05-09T08:40:48.714Z,97.50
2024-05-09T08:43:19.411Z,96.90
2024-05-09T08:45:48.946Z,97.00
2024-05-09T08:48:17.733Z,97.10
2024-05-09T08:50:45.490Z,97.20
2024-05-09T08:53:14.684Z,97.10
2024-05-09T08:55:43.616Z,97.80
2024-05-09T08:58:18.340Z,98.80
2024-05-09T09:00:46.641Z,98.80
2024-05-09T09:03:26.564Z,97.20
2024-05-09T09:06:05.318Z,97.40
2024-05-09T09:08:32.268Z,98.40
2024-05-09T09:11:02.492Z,98.10
2024-05-09T09:13:29.439Z,98.90
2024-05-09T09:15:59.879Z,98.10
2024-05-09T09:18:28.215Z,97.30
2024-05-09T09:20:55.928Z,96.90
2024-05-09T09:23:22.851Z,97.90
2024-05-09T09:25:52.450Z,97.60
2024-05-09T09:28:22.796Z,97.70
2024-05-09T09:30:49.734Z,97.60
2024-05-09T09:33:18.551Z,98.10
2024-05-09T09:35:45.465Z,97.50
2024-05-09T09:38:17.610Z,97.30
2024-05-09T09:40:49.922Z,97.10
2024-05-09T09:43:23.697Z,97.10
2024-05-09T09:45:52.896Z,97.00
2024-05-09T09:48:21.541Z,97.90
2024-05-09T09:50:51.105Z,97.80
2024-05-09T09:53:18.754Z,96.70
2024-05-09T09:55:46.893Z,96.80
2024-05-09T09:58:16.754Z,96.80
2024-05-09T10:00:44.616Z,96.50
2024-05-09T10:03:11.930Z,96.70
2024-05-09T10:05:42.078Z,96.10
2024-05-09T10:08:12.193Z,95.30
2024-05-09T10:10:39.966Z,94.90
2024-05-09T10:13:08.495Z,94.40
2024-05-09T10:15:46.022Z,95.70
2024-05-09T10:18:13.631Z,95.10
2024-05-09T10:20:44.835Z,95.50
2024-05-09T10:23:25.243Z,94.50
2024-05-09T10:26:12.334Z,95.70
2024-05-09T10:28:48.762Z,95.80
2024-05-09T10:31:20.362Z,95.30
2024-05-09T10:33:50.371Z,94.10
2024-05-09T10:36:26.213Z,94.70
2024-05-09T10:38:54.298Z,94.70
2024-05-09T10:41:22.850Z,94.80
2024-05-09T10:43:50.372Z,95.50
2024-05-09T10:46:23.028Z,94.70
2024-05-09T10:48:50.820Z,94.10
2024-05-09T10:51:19.814Z,95.30
2024-05-09T10:53:48.035Z,95.50
2024-05-09T10:56:15.102Z,94.90
2024-05-09T10:58:42.231Z,95.70
2024-05-09T11:01:15.360Z,95.10
2024-05-09T11:03:46.990Z,95.20
2024-05-09T11:06:17.758Z,95.50
2024-05-09T11:08:48.106Z,95.40
2024-05-09T11:11:15.604Z,95.10
2024-05-09T11:13:42.953Z,95.00
2024-05-09T11:16:20.902Z,94.20
2024-05-09T11:18:56.678Z,95.30
2024-05-09T11:21:24.587Z,96.00
2024-05-09T11:23:51.918Z,95.50
2024-05-09T11:26:21.475Z,94.00
2024-05-09T11:28:48.668Z,94.10
2024-05-09T11:31:15.686Z,95.30
2024-05-09T11:33:45.621Z,95.20
2024-05-09T11:36:13.111Z,94.30
2024-05-09T11:38:40.773Z,95.30
2024-05-09T11:41:07.728Z,94.50
2024-05-09T11:43:34.535Z,93.90
2024-05-09T11:46:02.837Z,93.20
2024-05-09T11:48:30.452Z,95.00
2024-05-09T11:50:57.491Z,94.90
2024-05-09T11:53:24.272Z,95.80
2024-05-09T11:55:51.181Z,95.10
2024-05-09T11:58:19.224Z,93.60
2024-05-09T12:00:47.181Z,92.90
2024-05-09T12:03:14.503Z,93.70
2024-05-09T12:05:41.748Z,94.20
2024-05-09T12:08:09.130Z,95.00
2024-05-09T12:10:36.974Z,93.80
2024-05-09T12:13:05.981Z,94.30
2024-05-09T12:15:38.131Z,96.60
2024-05-09T12:18:09.351Z,95.10
2024-05-09T12:20:39.203Z,94.40
2024-05-09T12:23:08.858Z,90.80
2024-05-09T12:25:37.255Z,92.80
2024-05-09T12:28:04.538Z,92.00
2024-05-09T12:30:36.838Z,90.70
2024-05-09T12:33:08.738Z,89.60
2024-05-09T12:35:36.002Z,89.80
2024-05-09T12:38:03.042Z,93.20
2024-05-09T12:40:35.934Z,92.20
2024-05-09T12:43:09.614Z,92.00
2024-05-09T12:45:37.939Z,94.70
2024-05-09T12:48:08.235Z,96.30
2024-05-09T12:50:36.113Z,96.90
2024-05-09T12:53:04.277Z,98.00
2024-05-09T12:55:40.476Z,97.50
2024-05-09T12:58:18.644Z,99.00
2024-05-09T13:00:46.408Z,99.90
2024-05-09T13:03:13.832Z,99.90
2024-05-09T13:05:41.505Z,99.90
2024-05-09T13:08:08.711Z,99.90
2024-05-09T13:10:35.865Z,99.90
2024-05-09T13:13:02.947Z,99.90
2024-05-09T13:15:31.134Z,99.80
2024-05-09T13:18:01.678Z,99.90
2024-05-09T13:20:33.640Z,99.90
2024-05-09T13:23:04.159Z,99.90
2024-05-09T13:25:31.235Z,99.70
2024-05-09T13:27:58.261Z,98.40
2024-05-09T13:30:34.382Z,98.20
2024-05-09T13:33:06.958Z,97.50
2024-05-09T13:35:35.428Z,95.40
2024-05-09T13:38:03.468Z,95.50
2024-05-09T13:40:34.400Z,98.30
2024-05-09T13:43:06.259Z,99.90
2024-05-09T13:45:34.099Z,99.20
2024-05-09T13:48:02.514Z,98.10
2024-05-09T13:50:34.597Z,95.00
2024-05-09T13:53:05.773Z,96.00
2024-05-09T13:55:33.855Z,95.90
2024-05-09T13:58:01.228Z,94.80
2024-05-09T14:00:41.489Z,98.30
2024-05-09T14:03:14.364Z,95.80
2024-05-09T14:05:41.773Z,95.30
2024-05-09T14:08:09.044Z,96.70
2024-05-09T14:10:36.018Z,99.70
2024-05-09T14:13:02.952Z,98.90
2024-05-09T14:15:29.909Z,99.90
2024-05-09T14:17:56.974Z,99.90
2024-05-09T14:20:30.777Z,99.90
2024-05-09T14:23:02.061Z,99.90
2024-05-09T14:25:30.403Z,98.30
2024-05-09T14:28:00.464Z,98.10
2024-05-09T14:30:34.828Z,98.80
2024-05-09T14:33:06.224Z,99.90
2024-05-09T14:35:34.137Z,96.20
2024-05-09T14:38:04.165Z,95.90
2024-05-09T14:40:40.310Z,98.10
2024-05-09T14:43:11.745Z,99.30
2024-05-09T14:45:38.968Z,98.50
2024-05-09T14:48:06.905Z,96.50
2024-05-09T14:50:37.522Z,95.80
2024-05-09T14:53:13.631Z,97.70
2024-05-09T14:55:43.026Z,99.90
2024-05-09T14:58:12.586Z,98.00
2024-05-09T15:00:46.119Z,97.00
2024-05-09T15:03:22.498Z,95.50
2024-05-09T15:05:50.589Z,95.70
2024-05-09T15:08:18.961Z,99.20
2024-05-09T15:10:46.566Z,98.80
2024-05-09T15:13:16.258Z,98.50
2024-05-09T15:15:43.948Z,98.50
2024-05-09T15:18:10.908Z,97.10
2024-05-09T15:20:38.907Z,99.30
2024-05-09T15:23:06.960Z,97.60
2024-05-09T15:25:35.009Z,99.10
2024-05-09T15:28:02.285Z,97.70
2024-05-09T15:30:32.296Z,99.00
2024-05-09T15:33:04.062Z,99.90
2024-05-09T15:35:32.292Z,99.90
2024-05-09T15:38:10.956Z,99.90
2024-05-09T15:40:40.400Z,99.90
2024-05-09T15:43:10.077Z,99.90
2024-05-09T15:45:38.485Z,99.90
2024-05-09T15:48:06.543Z,99.90
2024-05-09T15:50:38.838Z,99.90
2024-05-09T15:53:09.935Z,99.90
2024-05-09T15:55:37.700Z,99.90
2024-05-09T15:58:05.445Z,99.90
2024-05-09T16:00:38.576Z,99.90
2024-05-09T16:03:13.827Z,99.90
2024-05-09T16:05:44.178Z,99.90
2024-05-09T16:08:12.318Z,99.90
2024-05-09T16:10:44.167Z,99.90
2024-05-09T16:13:12.471Z,99.90
2024-05-09T16:15:45.724Z,99.90
2024-05-09T16:18:18.768Z,99.90
2024-05-09T16:20:50.238Z,99.90
2024-05-09T16:23:17.703Z,99.90
2024-05-09T16:25:47.585Z,99.90
2024-05-09T16:28:14.891Z,99.90
2024-05-09T16:30:41.905Z,99.90
2024-05-09T16:33:09.594Z,99.90
2024-05-09T16:35:37.121Z,99.90
2024-05-09T16:38:04.468Z,99.90
2024-05-09T16:40:37.963Z,99.90
2024-05-09T16:43:08.397Z,99.90
2024-05-09T16:45:35.808Z,99.90
2024-05-09T16:48:03.608Z,99.90
2024-05-09T16:50:34.241Z,99.90
2024-05-09T16:53:03.704Z,99.90
2024-05-09T16:55:31.025Z,99.90
2024-05-09T16:57:58.437Z,99.90
2024-05-09T17:00:35.600Z,99.90
2024-05-09T17:03:09.641Z,99.90
2024-05-09T17:05:37.233Z,99.90
2024-05-09T17:08:04.997Z,99.30
2024-05-09T17:10:34.176Z,99.90
2024-05-09T17:13:03.987Z,99.10
2024-05-09T17:15:32.638Z,98.80
2024-05-09T17:17:59.827Z,98.90
2024-05-09T17:20:32.927Z,99.30
2024-05-09T17:23:03.424Z,99.90
2024-05-09T17:25:30.281Z,98.90
2024-05-09T17:27:59.486Z,98.60
2024-05-09T17:30:32.437Z,99.60
2024-05-09T17:33:07.516Z,98.60
2024-05-09T17:35:36.097Z,99.80
2024-05-09T17:38:03.948Z,99.90
2024-05-09T17:40:36.591Z,99.30
2024-05-09T17:43:06.622Z,98.50
2024-05-09T17:45:37.334Z,98.20
2024-05-09T17:48:04.989Z,98.40
2024-05-09T17:50:35.788Z,98.60
2024-05-09T17:53:05.405Z,98.20
2024-05-09T17:55:32.661Z,97.80
2024-05-09T17:57:59.742Z,97.70
2024-05-09T18:02:56.576Z,97.70
2024-05-09T18:05:23.654Z,97.70
2024-05-09T18:07:50.691Z,98.00
2024-05-09T18:10:25.250Z,97.80
2024-05-09T18:12:56.639Z,98.30
2024-05-09T18:15:23.539Z,98.20
2024-05-09T18:17:51.895Z,98.40
2024-05-09T18:20:28.614Z,98.30
2024-05-09T18:23:04.798Z,98.40
2024-05-09T18:25:31.570Z,98.80
2024-05-09T18:27:58.517Z,98.40
2024-05-09T18:30:32.214Z,98.60
2024-05-09T18:33:02.296Z,98.60
2024-05-09T18:35:29.401Z,98.90
2024-05-09T18:37:56.277Z,99.10
2024-05-09T18:40:31.305Z,99.40
2024-05-09T18:43:02.440Z,99.00
2024-05-09T18:45:29.413Z,99.00
2024-05-09T18:47:56.597Z,99.20
2024-05-09T18:50:32.030Z,99.20
2024-05-09T18:53:04.959Z,99.10
2024-05-09T18:55:31.804Z,99.30
2024-05-09T18:57:58.783Z,99.50
2024-05-09T19:00:33.822Z,99.50
2024-05-09T19:03:06.142Z,99.30
2024-05-09T19:05:35.314Z,99.60
2024-05-09T19:08:03.109Z,99.50
2024-05-09T19:10:34.308Z,99.50
2024-05-09T19:13:06.694Z,99.70
2024-05-09T19:15:37.742Z,99.70
2024-05-09T19:18:05.109Z,99.70
2024-05-09T19:20:34.800Z,99.70
2024-05-09T19:23:03.468Z,99.60
2024-05-09T19:25:30.839Z,99.70
2024-05-09T19:27:57.871Z,99.90
2024-05-09T19:30:34.130Z,99.60
2024-05-09T19:33:06.557Z,99.60
2024-05-09T19:35:33.488Z,99.70
2024-05-09T19:38:00.454Z,99.90
2024-05-09T19:40:31.760Z,99.70
2024-05-09T19:43:01.714Z,99.70
2024-05-09T19:45:29.237Z,99.50
2024-05-09T19:47:56.523Z,99.60
2024-05-09T19:50:32.149Z,99.80
2024-05-09T19:53:07.034Z,99.90
2024-05-09T19:55:34.244Z,99.70
2024-05-09T19:58:07.305Z,99.70
2024-05-09T20:00:37.639Z,99.20
2024-05-09T20:03:07.019Z,99.20
2024-05-09T20:05:34.342Z,99.20
2024-05-09T20:08:01.357Z,99.30
2024-05-09T20:10:32.535Z,99.00
2024-05-09T20:13:01.848Z,99.20
2024-05-09T20:15:29.089Z,98.80
2024-05-09T20:17:56.172Z,99.00
2024-05-09T20:20:33.062Z,98.90
2024-05-09T20:23:06.049Z,98.90
2024-05-09T20:25:33.187Z,99.00
2024-05-09T20:28:00.221Z,99.00
2024-05-09T20:30:32.119Z,99.00
2024-05-09T20:33:03.033Z,99.10
2024-05-09T20:35:40.048Z,99.20
2024-05-09T20:38:07.301Z,99.20
2024-05-09T20:40:37.715Z,99.00
2024-05-09T20:43:08.130Z,99.10
2024-05-09T20:45:35.401Z,99.00
2024-05-09T20:48:02.777Z,99.10
2024-05-09T20:50:37.259Z,99.00
2024-05-09T20:53:09.316Z,99.30
2024-05-09T20:55:36.610Z,99.30
2024-05-09T20:58:03.554Z,99.30
2024-05-09T21:00:39.516Z,99.30
2024-05-09T21:03:10.174Z,99.50
2024-05-09T21:05:37.413Z,99.50
2024-05-09T21:08:04.557Z,99.40
2024-05-09T21:10:33.078Z,99.60
2024-05-09T21:13:02.679Z,99.40
2024-05-09T21:15:30.255Z,99.40
2024-05-09T21:17:57.144Z,99.20
2024-05-09T21:20:30.557Z,99.50
2024-05-09T21:23:02.655Z,99.20
2024-05-09T21:25:29.923Z,99.30
2024-05-09T21:27:57.067Z,99.40
2024-05-09T21:30:32.648Z,99.40
2024-05-09T21:33:31.797Z,99.30
2024-05-09T21:36:06.542Z,99.60
2024-05-09T21:38:33.521Z,99.70
2024-05-09T21:41:00.632Z,99.50
2024-05-09T21:43:28.598Z,99.50
2024-05-09T21:45:55.509Z,99.50
2024-05-09T21:48:22.465Z,99.50
2024-05-09T21:50:49.735Z,99.60
2024-05-09T21:53:16.563Z,99.80
2024-05-09T21:55:43.446Z,99.80
2024-05-09T21:58:11.780Z,99.80
2024-05-09T22:00:40.177Z,99.90
2024-05-09T22:03:08.471Z,99.90
2024-05-09T22:05:36.418Z,99.90
2024-05-09T22:08:03.741Z,99.90
2024-05-09T22:10:34.788Z,99.90
2024-05-09T22:13:07.127Z,99.90
2024-05-09T22:15:39.841Z,99.90
2024-05-09T22:18:09.182Z,99.90
2024-05-09T22:20:39.490Z,99.90
2024-05-09T22:23:08.294Z,99.90
2024-05-09T22:25:36.464Z,99.90
2024-05-09T22:28:06.756Z,99.90
2024-05-09T22:30:37.651Z,99.90
2024-05-09T22:33:11.596Z,99.90
2024-05-09T22:35:40.097Z,99.90
2024-05-09T22:38:07.069Z,99.90
2024-05-09T22:40:43.345Z,99.90
2024-05-09T22:43:23.249Z,99.90
2024-05-09T22:45:52.624Z,99.90
2024-05-09T22:48:19.797Z,99.90
2024-05-09T22:50:46.709Z,99.90
2024-05-09T22:53:13.581Z,99.90
2024-05-09T22:55:40.360Z,99.90
2024-05-09T22:58:07.250Z,99.90
2024-05-09T23:00:34.810Z,99.90
2024-05-09T23:03:02.297Z,99.90
2024-05-09T23:05:29.827Z,99.90
2024-05-09T23:07:56.788Z,99.90
2024-05-09T23:10:31.746Z,99.90
2024-05-09T23:13:03.345Z,99.90
2024-05-09T23:15:30.415Z,99.90
2024-05-09T23:17:58.121Z,99.90
2024-05-09T23:20:33.942Z,99.90
2024-05-09T23:23:06.289Z,99.90
2024-05-09T23:25:33.336Z,99.90
2024-05-09T23:28:00.409Z,99.90
2024-05-09T23:30:34.797Z,99.90
2024-05-09T23:33:06.162Z,99.90
2024-05-09T23:35:33.196Z,99.90
2024-05-09T23:37:59.982Z,99.90
2024-05-09T23:40:36.199Z,99.90
2024-05-09T23:43:06.271Z,99.90
2024-05-09T23:45:33.482Z,99.90
2024-05-09T23:48:00.825Z,99.90
2024-05-09T23:50:34.373Z,99.90
2024-05-09T23:53:05.058Z,99.90
2024-05-09T23:55:32.626Z,99.90
2024-05-09T23:58:00.257Z,99.90
